Chesterfield, New Hampshire
Current Conditions -  °F | °C
As of 5:35 PM on Friday 26 Dec 2014 (Local Time) from KEEN Reporting Station
Clear Clear  
Wind Chill: 39°   Ceiling: Unl
Heat Index: 39°   Visibility: 10mi
Dew Point: 27°   Wind: 3mph
Humidity: 61%   Direction: 230°SW
Pressure: 30.13"   Gusts: NA
Location:  42.89°N, 72.47°W
Report Text: KEEN 262235Z AUTO 23003KT 10SM CLR 04/M03 A3013 RMK AO1
Loading
Personal Weather Stations






























Interactive Weather Map New forecast layout! Learn more

10-Day Weather Forecast

Advertisements
Track Severe Weather on mobile